createdAt,value
2019-01-16T00:02:20.711Z,7.90
2019-01-16T00:05:09.406Z,7.80
2019-01-16T00:08:02.459Z,8.43
2019-01-16T00:10:49.868Z,8.17
2019-01-16T00:13:43.152Z,7.67
2019-01-16T00:16:22.184Z,8.87
2019-01-16T00:18:59.039Z,8.40
2019-01-16T00:21:46.684Z,8.43
2019-01-16T00:24:35.368Z,9.80
2019-01-16T00:27:22.667Z,8.57
2019-01-16T00:30:20.663Z,7.73
2019-01-16T00:33:18.431Z,7.60
2019-01-16T00:36:17.836Z,7.37
2019-01-16T00:39:05.608Z,7.00
2019-01-16T00:41:47.758Z,7.20
2019-01-16T00:44:35.283Z,6.57
2019-01-16T00:47:42.282Z,6.80
2019-01-16T00:50:37.078Z,6.87
2019-01-16T00:53:28.769Z,8.00
2019-01-16T00:56:16.752Z,6.30
2019-01-16T00:59:17.862Z,5.80
2019-01-16T01:02:25.019Z,5.90
2019-01-16T01:05:03.044Z,6.23
2019-01-16T01:07:50.362Z,5.60
2019-01-16T01:10:48.193Z,5.90
2019-01-16T01:13:40.903Z,4.80
2019-01-16T01:16:28.303Z,7.00
2019-01-16T01:19:25.985Z,6.17
2019-01-16T01:22:15.051Z,6.50
2019-01-16T01:25:09.895Z,6.07
2019-01-16T01:27:58.579Z,5.83
2019-01-16T01:30:43.886Z,7.03
2019-01-16T01:33:31.823Z,6.57
2019-01-16T01:36:27.239Z,6.27
2019-01-16T01:39:16.386Z,7.50
2019-01-16T01:42:03.755Z,6.73
2019-01-16T01:44:51.034Z,7.03
2019-01-16T01:47:38.695Z,6.73
2019-01-16T01:50:27.858Z,7.33
2019-01-16T01:53:15.060Z,7.40
2019-01-16T01:56:06.777Z,8.03
2019-01-16T01:58:55.478Z,7.27
2019-01-16T02:01:43.132Z,8.20
2019-01-16T02:04:27.435Z,7.70
2019-01-16T02:07:11.356Z,8.03
2019-01-16T02:10:01.863Z,8.70
2019-01-16T02:13:06.159Z,8.70
2019-01-16T02:16:13.267Z,8.30
2019-01-16T02:18:58.214Z,8.23
2019-01-16T02:21:49.630Z,8.47
2019-01-16T02:24:38.300Z,9.80
2019-01-16T02:27:25.935Z,7.60
2019-01-16T02:30:23.699Z,8.87
2019-01-16T02:33:09.898Z,8.07
2019-01-16T02:35:47.912Z,9.67
2019-01-16T02:38:34.083Z,9.27
2019-01-16T02:41:13.468Z,8.47
2019-01-16T02:43:53.993Z,9.27
2019-01-16T02:46:44.622Z,9.30
2019-01-16T02:49:51.672Z,9.23
2019-01-16T02:52:32.860Z,10.00
2019-01-16T02:55:39.627Z,10.10
2019-01-16T02:58:15.316Z,9.50
2019-01-16T03:01:04.322Z,9.90
2019-01-16T03:03:58.131Z,9.07
2019-01-16T03:06:47.995Z,9.27
2019-01-16T03:09:28.079Z,9.70
2019-01-16T03:12:22.959Z,10.87
2019-01-16T03:15:10.656Z,10.27
2019-01-16T03:18:08.425Z,9.57
2019-01-16T03:21:05.940Z,9.73
2019-01-16T03:24:01.443Z,9.23
2019-01-16T03:26:48.996Z,9.70
2019-01-16T03:29:40.786Z,10.33
2019-01-16T03:32:32.287Z,9.50
2019-01-16T03:35:10.123Z,9.67
2019-01-16T03:38:01.668Z,9.80
2019-01-16T03:40:48.984Z,9.13
2019-01-16T03:43:43.576Z,9.63
2019-01-16T03:46:29.547Z,10.10
2019-01-16T03:49:18.096Z,9.97
2019-01-16T03:52:00.436Z,9.60
2019-01-16T03:54:55.520Z,10.10
2019-01-16T03:57:43.150Z,10.40
2019-01-16T04:00:25.874Z,10.40
2019-01-16T04:03:13.370Z,10.77
2019-01-16T04:06:14.437Z,9.57
2019-01-16T04:09:02.177Z,9.23
2019-01-16T04:11:51.656Z,9.40
2019-01-16T04:14:32.608Z,9.93
2019-01-16T04:17:17.058Z,9.80
2019-01-16T04:20:06.244Z,9.63
2019-01-16T04:23:07.224Z,10.90
2019-01-16T04:26:01.976Z,10.20
2019-01-16T04:28:42.400Z,11.10
2019-01-16T04:31:29.225Z,11.40
2019-01-16T04:34:16.758Z,9.90
2019-01-16T04:36:58.354Z,10.50
2019-01-16T04:39:46.008Z,9.60
2019-01-16T04:42:29.420Z,11.00
2019-01-16T04:45:15.783Z,9.83
2019-01-16T04:48:03.644Z,10.37
2019-01-16T04:51:00.299Z,10.50
2019-01-16T04:53:59.204Z,10.80
2019-01-16T04:56:38.411Z,10.53
2019-01-16T04:59:18.664Z,9.20
2019-01-16T05:02:10.279Z,11.27
2019-01-16T05:04:54.636Z,10.33
2019-01-16T05:07:42.304Z,12.53
2019-01-16T05:10:37.174Z,10.70
2019-01-16T05:13:34.990Z,11.37
2019-01-16T05:16:29.341Z,10.87
2019-01-16T05:19:17.227Z,11.20
2019-01-16T05:22:12.020Z,11.37
2019-01-16T05:25:01.351Z,11.13
2019-01-16T05:27:55.526Z,11.33
2019-01-16T05:30:38.472Z,12.23
2019-01-16T05:33:23.671Z,11.27
2019-01-16T05:36:11.250Z,12.47
2019-01-16T05:39:05.767Z,11.30
2019-01-16T05:41:45.284Z,12.40
2019-01-16T05:44:46.417Z,11.90
2019-01-16T05:47:27.395Z,12.67
2019-01-16T05:50:06.204Z,15.80
2019-01-16T05:52:57.739Z,13.20
2019-01-16T05:55:46.603Z,13.03
2019-01-16T05:58:33.891Z,12.80
2019-01-16T06:01:21.947Z,13.37
2019-01-16T06:04:19.563Z,12.50
2019-01-16T06:07:06.033Z,12.57
2019-01-16T06:09:48.131Z,12.00
2019-01-16T06:12:28.484Z,13.30
2019-01-16T06:15:16.048Z,12.73
2019-01-16T06:18:10.547Z,13.37
2019-01-16T06:20:54.142Z,12.63
2019-01-16T06:23:41.919Z,13.50
2019-01-16T06:26:28.372Z,12.43
2019-01-16T06:29:16.263Z,12.93
2019-01-16T06:32:03.873Z,13.77
2019-01-16T06:34:46.758Z,14.10
2019-01-16T06:37:34.262Z,13.50
2019-01-16T06:40:23.453Z,14.37
2019-01-16T06:43:21.135Z,16.20
2019-01-16T06:45:57.163Z,15.17
2019-01-16T06:48:38.643Z,15.00
2019-01-16T06:51:33.311Z,15.87
2019-01-16T06:54:22.009Z,15.27
2019-01-16T06:57:19.786Z,15.80
2019-01-16T07:00:02.886Z,15.73
2019-01-16T07:02:45.118Z,16.13
2019-01-16T07:05:45.951Z,16.83
2019-01-16T07:08:33.491Z,16.30
2019-01-16T07:11:20.917Z,16.73
2019-01-16T07:14:24.944Z,16.70
2019-01-16T07:17:21.219Z,16.90
2019-01-16T07:20:09.842Z,16.43
2019-01-16T07:23:10.815Z,16.20
2019-01-16T07:25:59.295Z,15.30
2019-01-16T07:28:44.983Z,15.63
2019-01-16T07:31:23.616Z,15.87
2019-01-16T07:34:08.162Z,16.30
2019-01-16T07:37:03.146Z,16.67
2019-01-16T07:39:57.692Z,14.80
2019-01-16T07:42:46.959Z,16.03
2019-01-16T07:45:39.919Z,15.53
2019-01-16T07:48:27.319Z,15.10
2019-01-16T07:51:11.976Z,15.03
2019-01-16T07:54:03.767Z,14.73
2019-01-16T07:56:52.031Z,14.60
2019-01-16T07:59:39.267Z,14.93
2019-01-16T08:02:24.563Z,14.20
2019-01-16T08:05:20.936Z,13.13
2019-01-16T08:08:28.407Z,13.60
2019-01-16T08:11:26.084Z,12.80
2019-01-16T08:14:16.651Z,12.77
2019-01-16T08:17:08.224Z,12.30
2019-01-16T08:19:48.505Z,13.03
2019-01-16T08:22:27.912Z,12.17
2019-01-16T08:25:10.971Z,12.43
2019-01-16T08:28:04.651Z,12.33
2019-01-16T08:30:52.209Z,11.27
2019-01-16T08:33:59.275Z,11.20
2019-01-16T08:36:46.931Z,12.37
2019-01-16T08:39:35.720Z,11.87
2019-01-16T08:42:24.565Z,10.47
2019-01-16T08:45:11.725Z,11.13
2019-01-16T08:48:09.446Z,10.90
2019-01-16T08:51:04.194Z,11.80
2019-01-16T08:53:51.915Z,11.03
2019-01-16T08:56:39.243Z,9.70
2019-01-16T08:59:36.939Z,10.23
2019-01-16T09:02:20.634Z,10.30
2019-01-16T09:05:05.623Z,10.00
2019-01-16T09:07:53.500Z,10.40
2019-01-16T09:10:40.458Z,9.23
2019-01-16T09:13:31.122Z,9.63
2019-01-16T09:16:30.558Z,9.77
2019-01-16T09:19:14.323Z,9.47
2019-01-16T09:22:02.053Z,9.40
2019-01-16T09:24:42.980Z,9.33
2019-01-16T09:27:33.775Z,9.30
2019-01-16T09:30:18.561Z,9.47
2019-01-16T09:32:57.159Z,10.47
2019-01-16T09:35:39.891Z,9.20
2019-01-16T09:38:34.463Z,9.50
2019-01-16T09:41:16.275Z,9.60
2019-01-16T09:44:20.335Z,9.20
2019-01-16T09:47:09.263Z,9.10
2019-01-16T09:49:56.551Z,10.10
2019-01-16T09:52:47.067Z,10.03
2019-01-16T09:55:41.803Z,9.43
2019-01-16T09:58:30.531Z,9.30
2019-01-16T10:01:11.576Z,9.10
2019-01-16T10:03:57.918Z,9.97
2019-01-16T10:06:41.028Z,9.83
2019-01-16T10:09:32.836Z,9.30
2019-01-16T10:12:21.399Z,9.87
2019-01-16T10:15:08.879Z,8.07
2019-01-16T10:17:57.884Z,8.40
2019-01-16T10:20:46.153Z,7.60
2019-01-16T10:23:23.646Z,9.10
2019-01-16T10:26:21.507Z,9.60
2019-01-16T10:29:10.887Z,10.73
2019-01-16T10:31:59.635Z,9.17
2019-01-16T10:34:48.671Z,9.57
2019-01-16T10:37:37.427Z,9.33
2019-01-16T10:40:26.284Z,9.27
2019-01-16T10:43:11.267Z,9.53
2019-01-16T10:45:56.557Z,10.10
2019-01-16T10:48:51.554Z,9.70
2019-01-16T10:51:40.416Z,11.00
2019-01-16T10:54:35.459Z,11.13
2019-01-16T10:57:24.314Z,11.00
2019-01-16T11:00:12.094Z,11.67
2019-01-16T11:02:54.181Z,12.77
2019-01-16T11:05:47.662Z,11.87
2019-01-16T11:08:45.407Z,12.97
2019-01-16T11:11:43.212Z,12.97
2019-01-16T11:14:27.247Z,12.77
2019-01-16T11:17:26.543Z,11.27
2019-01-16T11:20:11.912Z,12.53
2019-01-16T11:22:56.313Z,13.23
2019-01-16T11:25:42.575Z,11.90
2019-01-16T11:28:33.994Z,12.10
2019-01-16T11:31:21.567Z,13.20
2019-01-16T11:34:01.991Z,12.83
2019-01-16T11:36:49.588Z,13.90
2019-01-16T11:39:37.403Z,13.60
2019-01-16T11:42:27.758Z,13.50
2019-01-16T11:45:25.484Z,13.80
2019-01-16T11:48:14.198Z,14.00
2019-01-16T11:51:01.623Z,13.37
2019-01-16T11:53:49.704Z,13.10
2019-01-16T11:56:29.758Z,13.57
2019-01-16T11:59:12.096Z,13.40
2019-01-16T12:01:55.187Z,13.00
2019-01-16T12:04:43.655Z,13.93
2019-01-16T12:07:19.940Z,12.53
2019-01-16T12:10:07.355Z,12.40
2019-01-16T12:13:08.177Z,13.20
2019-01-16T12:15:56.839Z,12.60
2019-01-16T12:18:44.187Z,12.50
2019-01-16T12:21:31.694Z,12.40
2019-01-16T12:24:20.393Z,12.37
2019-01-16T12:27:12.162Z,12.53
2019-01-16T12:29:55.171Z,11.23
2019-01-16T12:32:53.088Z,12.23
2019-01-16T12:35:48.071Z,12.67
2019-01-16T12:38:28.098Z,12.40
2019-01-16T12:41:25.898Z,13.40
2019-01-16T12:44:13.327Z,13.27
2019-01-16T12:47:00.955Z,13.40
2019-01-16T12:49:58.706Z,11.90
2019-01-16T12:52:54.301Z,12.37
2019-01-16T12:55:50.166Z,15.30
2019-01-16T12:58:37.667Z,12.27
2019-01-16T13:01:41.632Z,11.67
2019-01-16T13:04:39.022Z,12.83
2019-01-16T13:07:30.620Z,12.73
2019-01-16T13:10:27.112Z,11.30
2019-01-16T13:13:14.731Z,12.07
2019-01-16T13:16:16.736Z,11.63
2019-01-16T13:19:12.424Z,12.03
2019-01-16T13:21:52.901Z,12.00
2019-01-16T13:24:39.603Z,11.77
2019-01-16T13:27:36.957Z,10.43
2019-01-16T13:30:26.396Z,10.20
2019-01-16T13:33:30.470Z,10.20
2019-01-16T13:36:20.724Z,9.47
2019-01-16T13:39:18.411Z,9.97
2019-01-16T13:42:16.385Z,8.57
2019-01-16T13:45:02.152Z,8.77
2019-01-16T13:47:51.906Z,8.50
2019-01-16T13:50:43.790Z,8.50
2019-01-16T13:53:35.035Z,8.57
2019-01-16T13:56:18.024Z,9.40
2019-01-16T13:59:19.003Z,8.20
2019-01-16T14:02:07.982Z,8.27
2019-01-16T14:04:55.646Z,8.30
2019-01-16T14:07:49.366Z,7.40
2019-01-16T14:10:39.394Z,7.97
2019-01-16T14:13:19.123Z,6.87
2019-01-16T14:15:59.326Z,7.37
2019-01-16T14:18:51.127Z,6.53
2019-01-16T14:21:40.904Z,7.37
2019-01-16T14:24:27.410Z,7.40
2019-01-16T14:27:26.647Z,7.93
2019-01-16T14:30:12.786Z,6.90
2019-01-16T14:33:03.468Z,6.10
2019-01-16T14:35:42.718Z,6.20
2019-01-16T14:38:30.011Z,6.70
2019-01-16T14:41:18.137Z,6.83
2019-01-16T14:44:06.074Z,6.87
2019-01-16T14:46:54.746Z,6.37
2019-01-16T14:49:35.135Z,6.83
2019-01-16T14:52:17.743Z,6.70
2019-01-16T14:55:09.617Z,6.27
2019-01-16T14:57:57.027Z,6.10
2019-01-16T15:00:54.286Z,5.97
2019-01-16T15:03:58.201Z,6.43
2019-01-16T15:06:36.592Z,6.43
2019-01-16T15:09:33.150Z,6.20
2019-01-16T15:12:37.161Z,5.77
2019-01-16T15:15:25.534Z,6.23
2019-01-16T15:18:15.301Z,6.57
2019-01-16T15:21:12.422Z,6.20
2019-01-16T15:23:59.795Z,5.67
2019-01-16T15:26:48.495Z,5.80
2019-01-16T15:29:36.018Z,6.00
2019-01-16T15:32:31.072Z,5.60
2019-01-16T15:35:11.820Z,6.10
2019-01-16T15:38:12.983Z,5.90
2019-01-16T15:41:00.391Z,6.17
2019-01-16T15:43:47.797Z,5.53
2019-01-16T15:46:42.728Z,5.70
2019-01-16T15:49:30.452Z,6.03
2019-01-16T15:52:15.185Z,5.67
2019-01-16T15:55:12.976Z,6.23
2019-01-16T15:58:04.864Z,5.60
2019-01-16T16:00:55.078Z,5.90
2019-01-16T16:03:35.147Z,6.60
2019-01-16T16:06:27.419Z,6.10
2019-01-16T16:09:15.399Z,6.10
2019-01-16T16:12:04.688Z,6.80
2019-01-16T16:14:50.679Z,6.33
2019-01-16T16:17:38.408Z,5.60
2019-01-16T16:20:31.271Z,6.20
2019-01-16T16:23:11.208Z,6.30
2019-01-16T16:25:58.631Z,6.20
2019-01-16T16:28:36.110Z,7.30
2019-01-16T16:31:26.107Z,7.23
2019-01-16T16:34:33.053Z,7.97
2019-01-16T16:37:16.729Z,8.67
2019-01-16T16:40:24.807Z,8.53
2019-01-16T16:43:13.499Z,8.13
2019-01-16T16:45:51.994Z,8.77
2019-01-16T16:48:47.003Z,8.70
2019-01-16T16:51:41.843Z,9.00
2019-01-16T16:54:39.608Z,9.00
2019-01-16T16:57:19.746Z,9.53
2019-01-16T17:00:02.359Z,9.80
2019-01-16T17:02:50.683Z,10.90
2019-01-16T17:05:54.951Z,11.23
2019-01-16T17:08:42.627Z,12.23
2019-01-16T17:11:35.029Z,12.93
2019-01-16T17:14:25.587Z,12.60
2019-01-16T17:17:04.520Z,13.53
2019-01-16T17:19:52.217Z,13.67
2019-01-16T17:22:34.871Z,13.80
2019-01-16T17:25:23.595Z,12.93
2019-01-16T17:28:15.044Z,14.57
2019-01-16T17:31:12.811Z,14.07
2019-01-16T17:34:07.359Z,14.10
2019-01-16T17:36:58.895Z,15.27
2019-01-16T17:39:37.980Z,15.37
2019-01-16T17:42:27.570Z,14.00
2019-01-16T17:45:15.147Z,14.30
2019-01-16T17:48:03.865Z,14.60
2019-01-16T17:50:46.727Z,13.60
2019-01-16T17:53:29.316Z,14.10
2019-01-16T17:56:26.616Z,12.97
2019-01-16T17:59:18.115Z,13.20
2019-01-16T18:01:58.979Z,11.40
2019-01-16T18:04:34.915Z,13.37
2019-01-16T18:07:22.908Z,12.60
2019-01-16T18:10:10.495Z,12.40
2019-01-16T18:12:58.180Z,12.50
2019-01-16T18:15:45.680Z,12.93
2019-01-16T18:18:43.252Z,12.70
2019-01-16T18:21:35.047Z,12.70
2019-01-16T18:24:24.334Z,12.43
2019-01-16T18:27:16.762Z,11.70
2019-01-16T18:30:04.630Z,12.33
2019-01-16T18:32:47.287Z,12.50
2019-01-16T18:35:26.136Z,13.00
2019-01-16T18:38:13.891Z,11.80
2019-01-16T18:41:05.907Z,11.33
2019-01-16T18:43:51.997Z,10.83
2019-01-16T18:46:46.694Z,11.67
2019-01-16T18:49:39.127Z,10.30
2019-01-16T18:52:25.039Z,10.33
2019-01-16T18:55:12.677Z,10.43
2019-01-16T18:58:13.485Z,10.40
2019-01-16T19:01:01.388Z,10.10
2019-01-16T19:03:41.784Z,9.10
2019-01-16T19:06:29.297Z,9.43
2019-01-16T19:09:16.707Z,8.97
2019-01-16T19:12:03.711Z,8.90
2019-01-16T19:14:49.936Z,9.77
2019-01-16T19:17:41.375Z,8.43
2019-01-16T19:20:23.369Z,8.90
2019-01-16T19:23:15.610Z,9.07
2019-01-16T19:26:02.963Z,9.27
2019-01-16T19:28:50.416Z,9.27
2019-01-16T19:31:41.985Z,9.70
2019-01-16T19:34:25.552Z,9.83
2019-01-16T19:37:13.767Z,10.87
2019-01-16T19:39:59.955Z,10.57
2019-01-16T19:42:59.482Z,10.40
2019-01-16T19:45:47.239Z,10.83
2019-01-16T19:48:51.351Z,11.90
2019-01-16T19:51:37.692Z,10.67
2019-01-16T19:54:18.600Z,11.30
2019-01-16T19:57:02.403Z,12.10
2019-01-16T19:59:49.231Z,12.97
2019-01-16T20:02:36.755Z,11.77
2019-01-16T20:05:30.841Z,12.77
2019-01-16T20:08:15.824Z,12.20
2019-01-16T20:11:10.350Z,11.93
2019-01-16T20:13:54.247Z,13.20
2019-01-16T20:16:41.990Z,12.80
2019-01-16T20:19:24.689Z,13.20
2019-01-16T20:22:19.602Z,12.07
2019-01-16T20:24:58.016Z,12.50
2019-01-16T20:27:59.056Z,12.00
2019-01-16T20:30:46.598Z,12.60
2019-01-16T20:33:34.385Z,11.67
2019-01-16T20:36:18.655Z,12.83
2019-01-16T20:39:01.475Z,12.67
2019-01-16T20:41:53.533Z,13.37
2019-01-16T20:44:50.655Z,13.50
2019-01-16T20:47:51.731Z,13.93
2019-01-16T20:50:40.447Z,12.63
2019-01-16T20:53:46.527Z,13.13
2019-01-16T20:56:35.323Z,13.00
2019-01-16T20:59:42.679Z,12.83
2019-01-16T21:02:33.667Z,13.97
2019-01-16T21:05:23.103Z,14.50
2019-01-16T21:08:12.419Z,13.50
2019-01-16T21:11:04.791Z,12.53
2019-01-16T21:13:55.272Z,12.83
2019-01-16T21:16:52.614Z,13.47
2019-01-16T21:19:37.804Z,12.57
2019-01-16T21:22:25.420Z,12.00
2019-01-16T21:25:23.032Z,11.90
2019-01-16T21:28:11.728Z,11.40
2019-01-16T21:31:09.641Z,12.67
2019-01-16T21:34:07.441Z,12.20
2019-01-16T21:36:56.866Z,12.67
2019-01-16T21:39:44.351Z,12.77
2019-01-16T21:42:36.287Z,12.10
2019-01-16T21:45:25.970Z,12.27
2019-01-16T21:48:08.719Z,11.93
2019-01-16T21:50:56.215Z,12.93
2019-01-16T21:53:45.161Z,11.63
2019-01-16T21:56:44.062Z,12.87
2019-01-16T21:59:21.386Z,12.67
2019-01-16T22:02:09.866Z,12.80
2019-01-16T22:05:07.865Z,11.90
2019-01-16T22:07:46.250Z,12.70
2019-01-16T22:10:38.672Z,11.80
2019-01-16T22:13:30.179Z,12.13
2019-01-16T22:16:21.747Z,11.67
2019-01-16T22:19:13.271Z,12.07
2019-01-16T22:22:14.038Z,11.83
2019-01-16T22:25:09.323Z,11.43
2019-01-16T22:28:09.942Z,11.20
2019-01-16T22:30:57.119Z,11.90
2019-01-16T22:33:53.852Z,12.43
2019-01-16T22:36:37.495Z,12.53
2019-01-16T22:39:25.687Z,12.20
2019-01-16T22:42:04.467Z,12.20
2019-01-16T22:44:59.027Z,12.40
2019-01-16T22:47:50.171Z,12.13
2019-01-16T22:50:51.219Z,12.07
2019-01-16T22:53:30.431Z,12.57
2019-01-16T22:56:11.928Z,12.33
2019-01-16T22:58:53.625Z,13.10
2019-01-16T23:01:43.382Z,11.67
2019-01-16T23:04:30.826Z,11.60
2019-01-16T23:07:31.651Z,12.47
2019-01-16T23:10:35.698Z,12.47
2019-01-16T23:13:19.401Z,12.30
2019-01-16T23:16:10.910Z,12.70
2019-01-16T23:18:59.773Z,12.77
2019-01-16T23:21:44.351Z,13.07
2019-01-16T23:24:23.179Z,12.40
2019-01-16T23:27:12.116Z,12.70
2019-01-16T23:29:58.869Z,12.83
2019-01-16T23:32:50.701Z,13.03
2019-01-16T23:35:37.696Z,12.17
2019-01-16T23:38:29.184Z,13.13
2019-01-16T23:41:16.524Z,13.50
2019-01-16T23:43:55.878Z,11.93
2019-01-16T23:46:38.095Z,12.63
2019-01-16T23:49:32.967Z,13.07
2019-01-16T23:52:17.144Z,12.63
2019-01-16T23:55:01.554Z,12.77
2019-01-16T23:57:56.457Z,12.10
